sensor_id;sensor_type;location;lat;lon;timestamp;temperature;humidity
11615;DHT22;5863;52.832;4.758;2022-08-18T00:02:12;19.30;99.90
11615;DHT22;5863;52.832;4.758;2022-08-18T00:04:40;19.30;99.90
11615;DHT22;5863;52.832;4.758;2022-08-18T00:07:10;19.30;99.90
11615;DHT22;5863;52.832;4.758;2022-08-18T00:09:39;19.30;99.90
11615;DHT22;5863;52.832;4.758;2022-08-18T00:12:08;19.30;99.90
11615;DHT22;5863;52.832;4.758;2022-08-18T00:14:37;19.30;99.90
11615;DHT22;5863;52.832;4.758;2022-08-18T00:17:04;19.30;99.90
11615;DHT22;5863;52.832;4.758;2022-08-18T00:19:31;19.30;99.90
11615;DHT22;5863;52.832;4.758;2022-08-18T00:21:57;19.30;99.90
11615;DHT22;5863;52.832;4.758;2022-08-18T00:24:24;19.40;99.90
11615;DHT22;5863;52.832;4.758;2022-08-18T00:26:51;19.40;99.90
11615;DHT22;5863;52.832;4.758;2022-08-18T00:29:19;19.30;99.90
11615;DHT22;5863;52.832;4.758;2022-08-18T00:31:48;19.30;99.90
11615;DHT22;5863;52.832;4.758;2022-08-18T00:34:15;19.30;99.90
11615;DHT22;5863;52.832;4.758;2022-08-18T00:36:42;19.30;99.90
11615;DHT22;5863;52.832;4.758;2022-08-18T00:39:12;19.30;99.90
11615;DHT22;5863;52.832;4.758;2022-08-18T00:41:39;19.30;99.90
11615;DHT22;5863;52.832;4.758;2022-08-18T00:44:06;19.20;99.90
11615;DHT22;5863;52.832;4.758;2022-08-18T00:46:35;19.30;99.90
11615;DHT22;5863;52.832;4.758;2022-08-18T00:49:04;19.30;99.90
11615;DHT22;5863;52.832;4.758;2022-08-18T00:51:36;19.30;99.90
11615;DHT22;5863;52.832;4.758;2022-08-18T00:54:07;19.30;99.90
11615;DHT22;5863;52.832;4.758;2022-08-18T00:56:38;19.30;99.90
11615;DHT22;5863;52.832;4.758;2022-08-18T00:59:11;19.30;99.90
11615;DHT22;5863;52.832;4.758;2022-08-18T01:01:40;19.30;99.90
11615;DHT22;5863;52.832;4.758;2022-08-18T01:04:13;19.30;99.90
11615;DHT22;5863;52.832;4.758;2022-08-18T01:06:43;19.30;99.90
11615;DHT22;5863;52.832;4.758;2022-08-18T01:09:11;19.30;99.90
11615;DHT22;5863;52.832;4.758;2022-08-18T01:11:39;19.30;99.90
11615;DHT22;5863;52.832;4.758;2022-08-18T01:14:07;19.30;99.90
11615;DHT22;5863;52.832;4.758;2022-08-18T01:16:34;19.30;99.90
11615;DHT22;5863;52.832;4.758;2022-08-18T01:19:21;19.30;99.90
11615;DHT22;5863;52.832;4.758;2022-08-18T01:22:23;19.30;99.90
11615;DHT22;5863;52.832;4.758;2022-08-18T01:24:55;19.30;99.90
11615;DHT22;5863;52.832;4.758;2022-08-18T01:27:40;19.30;99.90
11615;DHT22;5863;52.832;4.758;2022-08-18T01:30:10;19.30;99.90
11615;DHT22;5863;52.832;4.758;2022-08-18T01:32:39;19.30;99.90
11615;DHT22;5863;52.832;4.758;2022-08-18T01:35:07;19.30;99.90
11615;DHT22;5863;52.832;4.758;2022-08-18T01:37:36;19.30;99.90
11615;DHT22;5863;52.832;4.758;2022-08-18T01:40:06;19.40;99.90
11615;DHT22;5863;52.832;4.758;2022-08-18T01:42:35;19.40;99.90
11615;DHT22;5863;52.832;4.758;2022-08-18T01:45:04;19.50;99.90
11615;DHT22;5863;52.832;4.758;2022-08-18T01:47:33;19.50;99.90
11615;DHT22;5863;52.832;4.758;2022-08-18T01:50:00;19.50;99.90
11615;DHT22;5863;52.832;4.758;2022-08-18T01:52:27;19.50;99.90
11615;DHT22;5863;52.832;4.758;2022-08-18T01:54:55;19.50;99.90
11615;DHT22;5863;52.832;4.758;2022-08-18T01:57:24;19.50;99.90
11615;DHT22;5863;52.832;4.758;2022-08-18T01:59:51;19.50;99.90
11615;DHT22;5863;52.832;4.758;2022-08-18T02:02:21;19.50;99.90
11615;DHT22;5863;52.832;4.758;2022-08-18T02:04:50;19.40;99.90
11615;DHT22;5863;52.832;4.758;2022-08-18T02:07:19;19.50;99.90
11615;DHT22;5863;52.832;4.758;2022-08-18T02:09:46;19.50;99.90
11615;DHT22;5863;52.832;4.758;2022-08-18T02:12:13;19.50;99.90
11615;DHT22;5863;52.832;4.758;2022-08-18T02:14:42;19.50;99.90
11615;DHT22;5863;52.832;4.758;2022-08-18T02:17:10;19.50;99.90
11615;DHT22;5863;52.832;4.758;2022-08-18T02:19:40;19.40;99.90
11615;DHT22;5863;52.832;4.758;2022-08-18T02:22:09;19.40;99.90
11615;DHT22;5863;52.832;4.758;2022-08-18T02:24:37;19.40;99.90
11615;DHT22;5863;52.832;4.758;2022-08-18T02:27:05;19.30;99.90
11615;DHT22;5863;52.832;4.758;2022-08-18T02:29:32;19.30;99.90
11615;DHT22;5863;52.832;4.758;2022-08-18T02:32:00;19.20;99.90
11615;DHT22;5863;52.832;4.758;2022-08-18T02:34:27;19.10;99.90
11615;DHT22;5863;52.832;4.758;2022-08-18T02:36:54;19.20;99.90
11615;DHT22;5863;52.832;4.758;2022-08-18T02:39:20;19.10;99.90
11615;DHT22;5863;52.832;4.758;2022-08-18T02:41:47;19.00;99.90
11615;DHT22;5863;52.832;4.758;2022-08-18T02:44:14;19.00;99.90
11615;DHT22;5863;52.832;4.758;2022-08-18T02:46:41;19.10;99.90
11615;DHT22;5863;52.832;4.758;2022-08-18T02:49:09;18.90;99.90
11615;DHT22;5863;52.832;4.758;2022-08-18T02:51:37;18.90;99.90
11615;DHT22;5863;52.832;4.758;2022-08-18T02:54:04;18.90;99.90
11615;DHT22;5863;52.832;4.758;2022-08-18T02:56:36;18.90;99.90
11615;DHT22;5863;52.832;4.758;2022-08-18T02:59:06;18.90;99.90
11615;DHT22;5863;52.832;4.758;2022-08-18T03:01:35;18.90;99.90
11615;DHT22;5863;52.832;4.758;2022-08-18T03:04:04;18.90;99.90
11615;DHT22;5863;52.832;4.758;2022-08-18T03:06:33;18.90;99.90
11615;DHT22;5863;52.832;4.758;2022-08-18T03:09:01;18.90;99.90
11615;DHT22;5863;52.832;4.758;2022-08-18T03:11:28;18.90;99.90
11615;DHT22;5863;52.832;4.758;2022-08-18T03:13:55;19.00;99.90
11615;DHT22;5863;52.832;4.758;2022-08-18T03:16:23;19.10;99.90
11615;DHT22;5863;52.832;4.758;2022-08-18T03:18:51;19.10;99.90
11615;DHT22;5863;52.832;4.758;2022-08-18T03:21:22;19.10;99.90
11615;DHT22;5863;52.832;4.758;2022-08-18T03:23:53;19.20;99.90
11615;DHT22;5863;52.832;4.758;2022-08-18T03:26:21;19.20;99.90
11615;DHT22;5863;52.832;4.758;2022-08-18T03:28:50;19.20;99.90
11615;DHT22;5863;52.832;4.758;2022-08-18T03:31:18;19.20;99.90
11615;DHT22;5863;52.832;4.758;2022-08-18T03:33:47;19.30;99.90
11615;DHT22;5863;52.832;4.758;2022-08-18T03:36:20;19.30;99.90
11615;DHT22;5863;52.832;4.758;2022-08-18T03:38:48;19.30;99.90
11615;DHT22;5863;52.832;4.758;2022-08-18T03:41:19;19.30;99.90
11615;DHT22;5863;52.832;4.758;2022-08-18T03:43:47;19.30;99.90
11615;DHT22;5863;52.832;4.758;2022-08-18T03:46:15;19.20;99.90
11615;DHT22;5863;52.832;4.758;2022-08-18T03:48:43;19.20;99.90
11615;DHT22;5863;52.832;4.758;2022-08-18T03:51:14;19.30;99.90
11615;DHT22;5863;52.832;4.758;2022-08-18T03:53:41;19.20;99.90
11615;DHT22;5863;52.832;4.758;2022-08-18T03:56:10;19.20;99.90
11615;DHT22;5863;52.832;4.758;2022-08-18T03:58:41;19.20;99.90
11615;DHT22;5863;52.832;4.758;2022-08-18T04:01:10;19.20;99.90
11615;DHT22;5863;52.832;4.758;2022-08-18T04:03:38;19.20;99.90
11615;DHT22;5863;52.832;4.758;2022-08-18T04:06:05;19.30;99.90
11615;DHT22;5863;52.832;4.758;2022-08-18T04:08:31;19.30;99.90
11615;DHT22;5863;52.832;4.758;2022-08-18T04:10:58;19.30;99.90
11615;DHT22;5863;52.832;4.758;2022-08-18T04:13:26;19.20;99.90
11615;DHT22;5863;52.832;4.758;2022-08-18T04:15:58;19.20;99.90
11615;DHT22;5863;52.832;4.758;2022-08-18T04:18:24;19.20;99.90
11615;DHT22;5863;52.832;4.758;2022-08-18T04:20:52;19.20;99.90
11615;DHT22;5863;52.832;4.758;2022-08-18T04:23:19;19.30;99.90
11615;DHT22;5863;52.832;4.758;2022-08-18T04:25:55;19.20;99.90
11615;DHT22;5863;52.832;4.758;2022-08-18T04:28:22;19.20;99.90
11615;DHT22;5863;52.832;4.758;2022-08-18T04:30:49;19.20;99.90
11615;DHT22;5863;52.832;4.758;2022-08-18T04:33:17;19.20;99.90
11615;DHT22;5863;52.832;4.758;2022-08-18T04:35:45;19.20;99.90
11615;DHT22;5863;52.832;4.758;2022-08-18T04:38:12;19.20;99.90
11615;DHT22;5863;52.832;4.758;2022-08-18T04:40:39;19.20;99.90
11615;DHT22;5863;52.832;4.758;2022-08-18T04:43:07;19.20;99.90
11615;DHT22;5863;52.832;4.758;2022-08-18T04:45:37;19.20;99.90
11615;DHT22;5863;52.832;4.758;2022-08-18T04:48:04;19.30;99.90
11615;DHT22;5863;52.832;4.758;2022-08-18T04:50:35;19.30;99.90
11615;DHT22;5863;52.832;4.758;2022-08-18T04:53:02;19.30;99.90
11615;DHT22;5863;52.832;4.758;2022-08-18T04:55:47;19.20;99.90
11615;DHT22;5863;52.832;4.758;2022-08-18T04:58:14;19.20;99.90
11615;DHT22;5863;52.832;4.758;2022-08-18T05:00:41;19.20;99.90
11615;DHT22;5863;52.832;4.758;2022-08-18T05:03:08;19.20;99.90
11615;DHT22;5863;52.832;4.758;2022-08-18T05:05:37;19.10;99.90
11615;DHT22;5863;52.832;4.758;2022-08-18T05:08:04;19.20;99.90
11615;DHT22;5863;52.832;4.758;2022-08-18T05:10:31;19.20;99.90
11615;DHT22;5863;52.832;4.758;2022-08-18T05:12:57;19.20;99.90
11615;DHT22;5863;52.832;4.758;2022-08-18T05:15:24;19.30;99.90
11615;DHT22;5863;52.832;4.758;2022-08-18T05:17:51;19.30;99.90
11615;DHT22;5863;52.832;4.758;2022-08-18T05:20:18;19.30;99.90
11615;DHT22;5863;52.832;4.758;2022-08-18T05:22:46;19.40;99.90
11615;DHT22;5863;52.832;4.758;2022-08-18T05:25:13;19.30;99.90
11615;DHT22;5863;52.832;4.758;2022-08-18T05:27:41;19.30;99.90
11615;DHT22;5863;52.832;4.758;2022-08-18T05:30:10;19.30;99.90
11615;DHT22;5863;52.832;4.758;2022-08-18T05:32:39;19.30;99.90
11615;DHT22;5863;52.832;4.758;2022-08-18T05:35:11;19.30;99.90
11615;DHT22;5863;52.832;4.758;2022-08-18T05:37:49;19.40;99.90
11615;DHT22;5863;52.832;4.758;2022-08-18T05:40:22;19.40;99.90
11615;DHT22;5863;52.832;4.758;2022-08-18T05:42:49;19.30;99.90
11615;DHT22;5863;52.832;4.758;2022-08-18T05:45:18;19.40;99.90
11615;DHT22;5863;52.832;4.758;2022-08-18T05:47:45;19.40;99.90
11615;DHT22;5863;52.832;4.758;2022-08-18T05:50:14;19.30;99.90
11615;DHT22;5863;52.832;4.758;2022-08-18T05:52:51;19.30;99.90
11615;DHT22;5863;52.832;4.758;2022-08-18T05:55:24;19.30;99.90
11615;DHT22;5863;52.832;4.758;2022-08-18T05:58:12;19.30;99.90
11615;DHT22;5863;52.832;4.758;2022-08-18T06:00:42;19.30;99.90
11615;DHT22;5863;52.832;4.758;2022-08-18T06:03:20;19.30;99.90
11615;DHT22;5863;52.832;4.758;2022-08-18T06:05:53;19.40;99.90
11615;DHT22;5863;52.832;4.758;2022-08-18T06:08:27;19.40;99.90
11615;DHT22;5863;52.832;4.758;2022-08-18T06:10:57;19.40;99.90
11615;DHT22;5863;52.832;4.758;2022-08-18T06:13:24;19.40;99.90
11615;DHT22;5863;52.832;4.758;2022-08-18T06:16:00;19.40;99.90
11615;DHT22;5863;52.832;4.758;2022-08-18T06:18:39;19.50;99.90
11615;DHT22;5863;52.832;4.758;2022-08-18T06:21:31;19.60;99.90
11615;DHT22;5863;52.832;4.758;2022-08-18T06:24:11;19.70;99.90
11615;DHT22;5863;52.832;4.758;2022-08-18T06:26:49;19.70;99.90
11615;DHT22;5863;52.832;4.758;2022-08-18T06:29:30;19.70;99.90
11615;DHT22;5863;52.832;4.758;2022-08-18T06:32:08;19.80;99.90
11615;DHT22;5863;52.832;4.758;2022-08-18T06:34:42;19.90;99.90
11615;DHT22;5863;52.832;4.758;2022-08-18T06:37:18;19.90;99.90
11615;DHT22;5863;52.832;4.758;2022-08-18T06:39:48;20.00;99.90
11615;DHT22;5863;52.832;4.758;2022-08-18T06:42:18;20.10;99.90
11615;DHT22;5863;52.832;4.758;2022-08-18T06:44:48;20.20;99.90
11615;DHT22;5863;52.832;4.758;2022-08-18T06:47:19;20.30;99.90
11615;DHT22;5863;52.832;4.758;2022-08-18T06:49:54;20.30;99.90
11615;DHT22;5863;52.832;4.758;2022-08-18T06:52:26;20.40;99.90
11615;DHT22;5863;52.832;4.758;2022-08-18T06:54:54;20.40;99.90
11615;DHT22;5863;52.832;4.758;2022-08-18T06:57:27;20.40;99.90
11615;DHT22;5863;52.832;4.758;2022-08-18T07:00:00;20.40;99.90
11615;DHT22;5863;52.832;4.758;2022-08-18T07:02:42;20.50;99.90
11615;DHT22;5863;52.832;4.758;2022-08-18T07:05:23;20.40;99.90
11615;DHT22;5863;52.832;4.758;2022-08-18T07:08:08;20.40;99.90
11615;DHT22;5863;52.832;4.758;2022-08-18T07:10:38;20.40;99.90
11615;DHT22;5863;52.832;4.758;2022-08-18T07:13:18;20.70;99.90
11615;DHT22;5863;52.832;4.758;2022-08-18T07:15:45;21.50;99.90
11615;DHT22;5863;52.832;4.758;2022-08-18T07:18:13;22.30;99.90
11615;DHT22;5863;52.832;4.758;2022-08-18T07:20:44;23.20;99.90
11615;DHT22;5863;52.832;4.758;2022-08-18T07:23:24;23.80;99.90
11615;DHT22;5863;52.832;4.758;2022-08-18T07:25:59;24.00;99.90
11615;DHT22;5863;52.832;4.758;2022-08-18T07:28:30;23.80;99.90
11615;DHT22;5863;52.832;4.758;2022-08-18T07:31:15;23.40;99.90
11615;DHT22;5863;52.832;4.758;2022-08-18T07:33:55;22.90;99.90
11615;DHT22;5863;52.832;4.758;2022-08-18T07:36:25;22.40;99.90
11615;DHT22;5863;52.832;4.758;2022-08-18T07:38:57;22.00;99.90
11615;DHT22;5863;52.832;4.758;2022-08-18T07:41:29;21.70;99.90
11615;DHT22;5863;52.832;4.758;2022-08-18T07:44:05;21.40;99.90
11615;DHT22;5863;52.832;4.758;2022-08-18T07:46:37;21.30;99.90
11615;DHT22;5863;52.832;4.758;2022-08-18T07:49:07;21.10;99.90
11615;DHT22;5863;52.832;4.758;2022-08-18T07:51:44;20.90;99.90
11615;DHT22;5863;52.832;4.758;2022-08-18T07:54:18;20.70;99.90
11615;DHT22;5863;52.832;4.758;2022-08-18T07:56:50;20.70;99.90
11615;DHT22;5863;52.832;4.758;2022-08-18T07:59:28;20.50;99.90
11615;DHT22;5863;52.832;4.758;2022-08-18T08:02:18;20.90;99.90
11615;DHT22;5863;52.832;4.758;2022-08-18T08:04:55;22.10;99.90
11615;DHT22;5863;52.832;4.758;2022-08-18T08:07:29;23.10;99.90
11615;DHT22;5863;52.832;4.758;2022-08-18T08:10:15;24.10;99.90
11615;DHT22;5863;52.832;4.758;2022-08-18T08:12:51;25.10;99.90
11615;DHT22;5863;52.832;4.758;2022-08-18T08:15:32;26.10;99.90
11615;DHT22;5863;52.832;4.758;2022-08-18T08:18:09;26.60;99.90
11615;DHT22;5863;52.832;4.758;2022-08-18T08:20:42;27.00;99.90
11615;DHT22;5863;52.832;4.758;2022-08-18T08:23:18;27.20;99.90
11615;DHT22;5863;52.832;4.758;2022-08-18T08:25:58;27.10;99.90
11615;DHT22;5863;52.832;4.758;2022-08-18T08:28:37;26.90;99.90
11615;DHT22;5863;52.832;4.758;2022-08-18T08:31:10;26.80;99.90
11615;DHT22;5863;52.832;4.758;2022-08-18T08:33:45;26.20;99.90
11615;DHT22;5863;52.832;4.758;2022-08-18T08:36:17;25.80;99.90
11615;DHT22;5863;52.832;4.758;2022-08-18T08:38:52;25.50;99.90
11615;DHT22;5863;52.832;4.758;2022-08-18T08:41:23;25.30;99.90
11615;DHT22;5863;52.832;4.758;2022-08-18T08:43:59;25.00;99.90
11615;DHT22;5863;52.832;4.758;2022-08-18T08:46:32;24.70;99.90
11615;DHT22;5863;52.832;4.758;2022-08-18T08:49:06;24.60;99.90
11615;DHT22;5863;52.832;4.758;2022-08-18T08:51:38;24.50;99.90
11615;DHT22;5863;52.832;4.758;2022-08-18T08:54:09;24.50;99.90
11615;DHT22;5863;52.832;4.758;2022-08-18T08:56:44;24.30;99.90
11615;DHT22;5863;52.832;4.758;2022-08-18T08:59:14;24.20;99.90
11615;DHT22;5863;52.832;4.758;2022-08-18T09:01:51;24.10;99.90
11615;DHT22;5863;52.832;4.758;2022-08-18T09:04:29;24.20;99.90
11615;DHT22;5863;52.832;4.758;2022-08-18T09:07:11;24.30;99.90
11615;DHT22;5863;52.832;4.758;2022-08-18T09:12:52;24.30;99.90
11615;DHT22;5863;52.832;4.758;2022-08-18T09:15:44;24.30;99.90
11615;DHT22;5863;52.832;4.758;2022-08-18T09:18:40;24.40;99.90
11615;DHT22;5863;52.832;4.758;2022-08-18T09:21:20;24.30;99.90
11615;DHT22;5863;52.832;4.758;2022-08-18T09:23:53;24.40;99.90
11615;DHT22;5863;52.832;4.758;2022-08-18T09:26:37;24.50;99.90
11615;DHT22;5863;52.832;4.758;2022-08-18T09:29:14;24.50;99.90
11615;DHT22;5863;52.832;4.758;2022-08-18T09:31:43;24.60;99.90
11615;DHT22;5863;52.832;4.758;2022-08-18T09:34:32;24.70;99.90
11615;DHT22;5863;52.832;4.758;2022-08-18T09:37:13;24.80;99.90
11615;DHT22;5863;52.832;4.758;2022-08-18T09:39:43;25.00;99.90
11615;DHT22;5863;52.832;4.758;2022-08-18T09:42:38;25.10;99.90
11615;DHT22;5863;52.832;4.758;2022-08-18T09:48:20;25.10;99.90
11615;DHT22;5863;52.832;4.758;2022-08-18T09:51:20;25.00;99.90
11615;DHT22;5863;52.832;4.758;2022-08-18T09:54:19;25.00;99.90
11615;DHT22;5863;52.832;4.758;2022-08-18T09:57:18;25.10;99.90
11615;DHT22;5863;52.832;4.758;2022-08-18T10:03:22;24.80;99.90
11615;DHT22;5863;52.832;4.758;2022-08-18T10:09:06;24.80;99.90
11615;DHT22;5863;52.832;4.758;2022-08-18T10:11:46;24.90;99.90
11615;DHT22;5863;52.832;4.758;2022-08-18T10:14:27;25.00;99.90
11615;DHT22;5863;52.832;4.758;2022-08-18T10:17:02;24.90;99.90
11615;DHT22;5863;52.832;4.758;2022-08-18T10:19:40;24.70;99.90
11615;DHT22;5863;52.832;4.758;2022-08-18T10:22:10;24.60;99.90
11615;DHT22;5863;52.832;4.758;2022-08-18T10:24:40;24.60;99.90
11615;DHT22;5863;52.832;4.758;2022-08-18T10:27:36;24.70;99.90
11615;DHT22;5863;52.832;4.758;2022-08-18T10:30:46;24.90;99.90
11615;DHT22;5863;52.832;4.758;2022-08-18T10:33:57;25.00;99.90
11615;DHT22;5863;52.832;4.758;2022-08-18T10:36:49;25.10;99.90
11615;DHT22;5863;52.832;4.758;2022-08-18T10:39:20;24.90;99.90
11615;DHT22;5863;52.832;4.758;2022-08-18T10:41:55;24.90;99.90
11615;DHT22;5863;52.832;4.758;2022-08-18T10:44:23;24.80;99.90
11615;DHT22;5863;52.832;4.758;2022-08-18T10:46:55;24.80;99.90
11615;DHT22;5863;52.832;4.758;2022-08-18T10:49:25;24.80;99.90
11615;DHT22;5863;52.832;4.758;2022-08-18T10:52:17;24.90;99.90
11615;DHT22;5863;52.832;4.758;2022-08-18T10:55:04;25.10;99.90
11615;DHT22;5863;52.832;4.758;2022-08-18T10:57:42;24.90;99.90
11615;DHT22;5863;52.832;4.758;2022-08-18T11:00:17;24.90;99.90
11615;DHT22;5863;52.832;4.758;2022-08-18T11:02:55;24.90;99.90
11615;DHT22;5863;52.832;4.758;2022-08-18T11:05:26;24.70;99.90
11615;DHT22;5863;52.832;4.758;2022-08-18T11:07:58;24.80;99.90
11615;DHT22;5863;52.832;4.758;2022-08-18T11:10:36;24.80;99.90
11615;DHT22;5863;52.832;4.758;2022-08-18T11:13:10;24.70;99.90
11615;DHT22;5863;52.832;4.758;2022-08-18T11:15:48;24.70;99.90
11615;DHT22;5863;52.832;4.758;2022-08-18T11:18:28;24.70;99.90
11615;DHT22;5863;52.832;4.758;2022-08-18T11:21:24;24.60;99.90
11615;DHT22;5863;52.832;4.758;2022-08-18T11:24:04;24.60;99.90
11615;DHT22;5863;52.832;4.758;2022-08-18T11:26:33;24.50;99.90
11615;DHT22;5863;52.832;4.758;2022-08-18T11:29:17;24.50;99.90
11615;DHT22;5863;52.832;4.758;2022-08-18T11:31:47;24.50;99.90
11615;DHT22;5863;52.832;4.758;2022-08-18T11:34:18;24.50;99.90
11615;DHT22;5863;52.832;4.758;2022-08-18T11:36:55;24.50;99.90
11615;DHT22;5863;52.832;4.758;2022-08-18T11:39:25;24.70;99.90
11615;DHT22;5863;52.832;4.758;2022-08-18T11:41:54;24.70;99.90
11615;DHT22;5863;52.832;4.758;2022-08-18T11:44:28;24.80;99.90
11615;DHT22;5863;52.832;4.758;2022-08-18T11:47:08;24.70;99.90
11615;DHT22;5863;52.832;4.758;2022-08-18T11:49:35;24.70;99.90
11615;DHT22;5863;52.832;4.758;2022-08-18T11:52:19;24.60;99.90
11615;DHT22;5863;52.832;4.758;2022-08-18T11:54:49;24.50;99.90
11615;DHT22;5863;52.832;4.758;2022-08-18T11:57:49;24.40;99.90
11615;DHT22;5863;52.832;4.758;2022-08-18T12:03:29;24.40;99.90
11615;DHT22;5863;52.832;4.758;2022-08-18T12:05:58;24.30;99.90
11615;DHT22;5863;52.832;4.758;2022-08-18T12:08:33;24.20;99.90
11615;DHT22;5863;52.832;4.758;2022-08-18T12:11:13;24.20;99.90
11615;DHT22;5863;52.832;4.758;2022-08-18T12:13:44;24.00;99.90
11615;DHT22;5863;52.832;4.758;2022-08-18T12:16:15;24.00;99.90
11615;DHT22;5863;52.832;4.758;2022-08-18T12:18:43;24.00;99.90
11615;DHT22;5863;52.832;4.758;2022-08-18T12:21:12;24.00;99.90
11615;DHT22;5863;52.832;4.758;2022-08-18T12:23:40;24.00;99.90
11615;DHT22;5863;52.832;4.758;2022-08-18T12:26:07;24.00;99.90
11615;DHT22;5863;52.832;4.758;2022-08-18T12:28:35;24.00;99.90
11615;DHT22;5863;52.832;4.758;2022-08-18T12:31:03;24.00;99.90
11615;DHT22;5863;52.832;4.758;2022-08-18T12:33:30;24.00;99.90
11615;DHT22;5863;52.832;4.758;2022-08-18T12:35:57;24.10;99.90
11615;DHT22;5863;52.832;4.758;2022-08-18T12:38:24;24.10;99.90
11615;DHT22;5863;52.832;4.758;2022-08-18T12:40:51;24.10;99.90
11615;DHT22;5863;52.832;4.758;2022-08-18T12:43:17;24.10;99.90
11615;DHT22;5863;52.832;4.758;2022-08-18T12:45:44;24.00;99.90
11615;DHT22;5863;52.832;4.758;2022-08-18T12:48:13;23.90;99.90
11615;DHT22;5863;52.832;4.758;2022-08-18T12:50:40;23.80;99.90
11615;DHT22;5863;52.832;4.758;2022-08-18T12:53:07;23.70;99.90
11615;DHT22;5863;52.832;4.758;2022-08-18T12:55:38;23.70;99.90
11615;DHT22;5863;52.832;4.758;2022-08-18T12:58:05;23.70;99.90
11615;DHT22;5863;52.832;4.758;2022-08-18T13:00:32;23.80;99.90
11615;DHT22;5863;52.832;4.758;2022-08-18T13:02:59;23.80;99.90
11615;DHT22;5863;52.832;4.758;2022-08-18T13:05:28;23.70;99.90
11615;DHT22;5863;52.832;4.758;2022-08-18T13:07:57;23.80;99.90
11615;DHT22;5863;52.832;4.758;2022-08-18T13:10:24;23.80;99.90
11615;DHT22;5863;52.832;4.758;2022-08-18T13:12:51;23.70;99.90
11615;DHT22;5863;52.832;4.758;2022-08-18T13:15:18;23.70;99.90
11615;DHT22;5863;52.832;4.758;2022-08-18T13:17:44;23.70;99.90
11615;DHT22;5863;52.832;4.758;2022-08-18T13:20:18;23.70;99.90
11615;DHT22;5863;52.832;4.758;2022-08-18T13:22:46;23.70;99.90
11615;DHT22;5863;52.832;4.758;2022-08-18T13:25:15;23.60;99.90
11615;DHT22;5863;52.832;4.758;2022-08-18T13:27:42;23.70;99.90
11615;DHT22;5863;52.832;4.758;2022-08-18T13:30:12;23.70;99.90
11615;DHT22;5863;52.832;4.758;2022-08-18T13:32:39;23.70;99.90
11615;DHT22;5863;52.832;4.758;2022-08-18T13:35:08;23.70;99.90
11615;DHT22;5863;52.832;4.758;2022-08-18T13:37:35;23.70;99.90
11615;DHT22;5863;52.832;4.758;2022-08-18T13:40:04;23.70;99.90
11615;DHT22;5863;52.832;4.758;2022-08-18T13:42:38;23.70;99.90
11615;DHT22;5863;52.832;4.758;2022-08-18T13:45:07;23.80;99.90
11615;DHT22;5863;52.832;4.758;2022-08-18T13:47:36;23.70;99.90
11615;DHT22;5863;52.832;4.758;2022-08-18T13:50:04;23.70;99.90
11615;DHT22;5863;52.832;4.758;2022-08-18T13:52:31;23.60;99.90
11615;DHT22;5863;52.832;4.758;2022-08-18T13:54:59;23.60;99.90
11615;DHT22;5863;52.832;4.758;2022-08-18T13:57:29;23.70;99.90
11615;DHT22;5863;52.832;4.758;2022-08-18T13:59:56;23.60;99.90
11615;DHT22;5863;52.832;4.758;2022-08-18T14:02:23;23.70;99.90
11615;DHT22;5863;52.832;4.758;2022-08-18T14:04:50;23.70;99.90
11615;DHT22;5863;52.832;4.758;2022-08-18T14:07:26;23.70;99.90
11615;DHT22;5863;52.832;4.758;2022-08-18T14:09:53;23.70;99.90
11615;DHT22;5863;52.832;4.758;2022-08-18T14:12:22;23.70;99.90
11615;DHT22;5863;52.832;4.758;2022-08-18T14:14:52;23.70;99.90
11615;DHT22;5863;52.832;4.758;2022-08-18T14:17:20;23.60;99.90
11615;DHT22;5863;52.832;4.758;2022-08-18T14:19:47;23.60;99.90
11615;DHT22;5863;52.832;4.758;2022-08-18T14:22:31;23.60;99.90
11615;DHT22;5863;52.832;4.758;2022-08-18T14:25:15;23.50;99.90
11615;DHT22;5863;52.832;4.758;2022-08-18T14:27:59;23.60;99.90
11615;DHT22;5863;52.832;4.758;2022-08-18T14:30:27;23.60;99.90
11615;DHT22;5863;52.832;4.758;2022-08-18T14:32:56;23.60;99.90
11615;DHT22;5863;52.832;4.758;2022-08-18T14:35:23;23.50;99.90
11615;DHT22;5863;52.832;4.758;2022-08-18T14:37:50;23.60;99.90
11615;DHT22;5863;52.832;4.758;2022-08-18T14:40:17;23.50;99.90
11615;DHT22;5863;52.832;4.758;2022-08-18T14:42:45;23.50;99.90
11615;DHT22;5863;52.832;4.758;2022-08-18T14:45:12;23.40;99.90
11615;DHT22;5863;52.832;4.758;2022-08-18T14:47:41;23.40;99.90
11615;DHT22;5863;52.832;4.758;2022-08-18T14:50:08;23.30;99.90
11615;DHT22;5863;52.832;4.758;2022-08-18T14:52:38;23.20;99.90
11615;DHT22;5863;52.832;4.758;2022-08-18T14:55:06;23.30;99.90
11615;DHT22;5863;52.832;4.758;2022-08-18T14:57:32;23.20;99.90
11615;DHT22;5863;52.832;4.758;2022-08-18T15:00:09;23.30;99.90
11615;DHT22;5863;52.832;4.758;2022-08-18T15:02:37;23.30;99.90
11615;DHT22;5863;52.832;4.758;2022-08-18T15:05:07;23.20;99.90
11615;DHT22;5863;52.832;4.758;2022-08-18T15:07:35;23.30;99.90
11615;DHT22;5863;52.832;4.758;2022-08-18T15:10:03;23.30;99.90
11615;DHT22;5863;52.832;4.758;2022-08-18T15:12:30;23.30;99.90
11615;DHT22;5863;52.832;4.758;2022-08-18T15:14:57;23.20;99.90
11615;DHT22;5863;52.832;4.758;2022-08-18T15:17:25;23.20;99.90
11615;DHT22;5863;52.832;4.758;2022-08-18T15:19:52;23.20;99.90
11615;DHT22;5863;52.832;4.758;2022-08-18T15:22:20;23.30;99.90
11615;DHT22;5863;52.832;4.758;2022-08-18T15:25:06;23.40;99.90
11615;DHT22;5863;52.832;4.758;2022-08-18T15:27:51;23.30;99.90
11615;DHT22;5863;52.832;4.758;2022-08-18T15:30:20;23.30;99.90
11615;DHT22;5863;52.832;4.758;2022-08-18T15:32:48;23.30;99.90
11615;DHT22;5863;52.832;4.758;2022-08-18T15:35:15;23.20;99.90
11615;DHT22;5863;52.832;4.758;2022-08-18T15:37:44;23.10;99.90
11615;DHT22;5863;52.832;4.758;2022-08-18T15:40:14;23.10;99.90
11615;DHT22;5863;52.832;4.758;2022-08-18T15:42:44;23.10;99.90
11615;DHT22;5863;52.832;4.758;2022-08-18T15:45:14;23.10;99.90
11615;DHT22;5863;52.832;4.758;2022-08-18T15:47:41;23.20;99.90
11615;DHT22;5863;52.832;4.758;2022-08-18T15:50:09;23.20;99.90
11615;DHT22;5863;52.832;4.758;2022-08-18T15:52:46;23.20;99.90
11615;DHT22;5863;52.832;4.758;2022-08-18T15:55:15;23.20;99.90
11615;DHT22;5863;52.832;4.758;2022-08-18T15:57:41;23.10;99.90
11615;DHT22;5863;52.832;4.758;2022-08-18T16:00:09;23.10;99.90
11615;DHT22;5863;52.832;4.758;2022-08-18T16:02:37;23.00;99.90
11615;DHT22;5863;52.832;4.758;2022-08-18T16:05:05;23.00;99.90
11615;DHT22;5863;52.832;4.758;2022-08-18T16:07:34;22.90;99.90
11615;DHT22;5863;52.832;4.758;2022-08-18T16:10:04;22.90;99.90
11615;DHT22;5863;52.832;4.758;2022-08-18T16:12:30;23.00;99.90
11615;DHT22;5863;52.832;4.758;2022-08-18T16:14:58;22.90;99.90
11615;DHT22;5863;52.832;4.758;2022-08-18T16:17:25;23.00;99.90
11615;DHT22;5863;52.832;4.758;2022-08-18T16:19:51;23.00;99.90
11615;DHT22;5863;52.832;4.758;2022-08-18T16:22:18;23.00;99.90
11615;DHT22;5863;52.832;4.758;2022-08-18T16:24:45;23.00;99.90
11615;DHT22;5863;52.832;4.758;2022-08-18T16:27:13;23.00;99.90
11615;DHT22;5863;52.832;4.758;2022-08-18T16:29:41;22.90;99.90
11615;DHT22;5863;52.832;4.758;2022-08-18T16:32:07;22.80;99.90